Terminal Aerodrome Forecast
Issued by NWS

Home | Current Version | Previous Version | Text Only | Print | Product List | Glossary On
Versions: 1 2 3 4 5 6 7 8 9 10 11 12
000
FTUS43 KAPX 281739
TAFPLN
TAF
KPLN 281739Z 2818/2918 04008KT P6SM SCT060
     FM282300 VRB03KT P6SM FEW250
     FM290300 06005KT P6SM BKN060
     FM291300 06007KT P6SM FEW250
     FM291600 02009G12KT P6SM SCT050=

USA.gov is the U.S. government's official web portal to all federal, state and local government web resources and services.